Time;durP1;ratioP1;P1;durP2;ratioP2;P2;SDS_P1;SDS_P2;PMS_P1;PMS_P2;Temp;Humidity;BMP_temperature;BMP_pressure;BME280_temperature;BME280_humidity;BME280_pressure;Samples;Min_cycle;Max_cycle;Signal;HPM_P1;HPM_P2
2022/04/18 00:01:58;;;;;;;16.23;8.03;;;;;;;-145.18;100.00;60484.78;5008262;28;20773;-70
2022/04/18 00:04:23;;;;;;;16.50;8.17;;;;;;;-145.18;100.00;60484.78;5007941;28;20057;-70
2022/04/18 00:06:48;;;;;;;15.47;7.90;;;;;;;-145.18;100.00;60484.78;5017334;28;20036;-70
2022/04/18 00:09:14;;;;;;;15.60;8.30;;;;;;;-145.18;100.00;60484.78;5011647;28;20029;-70
2022/04/18 00:11:39;;;;;;;15.13;8.20;;;;;;;-145.18;100.00;60484.78;5014029;28;20112;-70
2022/04/18 00:14:05;;;;;;;15.57;7.77;;;;;;;-145.18;100.00;60484.78;5014528;28;20159;-70
2022/04/18 00:16:30;;;;;;;15.40;8.47;;;;;;;-145.18;100.00;60484.78;5012077;28;20432;-70
2022/04/18 00:18:56;;;;;;;17.93;8.33;;;;;;;-145.18;100.00;60484.78;5016341;28;20084;-70
2022/04/18 00:21:21;;;;;;;16.23;8.70;;;;;;;-145.18;100.00;60484.78;5008300;28;20064;-70
2022/04/18 00:23:47;;;;;;;16.93;8.93;;;;;;;-145.18;100.00;60484.78;5006242;28;20041;-70
2022/04/18 00:26:13;;;;;;;16.87;8.53;;;;;;;-145.18;100.00;60484.78;5010493;28;20025;-70
2022/04/18 00:28:39;;;;;;;15.47;8.67;;;;;;;-145.18;100.00;60484.78;5005605;28;21665;-70
2022/04/18 00:31:04;;;;;;;16.43;8.40;;;;;;;-145.18;100.00;60484.78;5002273;28;20040;-70
2022/04/18 00:33:30;;;;;;;16.60;8.33;;;;;;;-145.18;100.00;60484.78;5006626;28;20544;-70
2022/04/18 00:35:56;;;;;;;17.70;9.43;;;;;;;-145.18;100.00;60484.78;5008126;28;20017;-70
2022/04/18 00:38:21;;;;;;;21.53;9.27;;;;;;;-145.18;100.00;60484.78;5002070;28;20037;-70
2022/04/18 00:40:47;;;;;;;19.47;9.10;;;;;;;-145.18;100.00;60484.78;5004582;28;20029;-70
2022/04/18 00:43:13;;;;;;;17.90;9.10;;;;;;;-145.18;100.00;60484.78;5012361;28;20037;-70
2022/04/18 00:45:39;;;;;;;17.13;9.30;;;;;;;-145.18;100.00;60484.78;5017652;28;20033;-70
2022/04/18 00:48:04;;;;;;;19.33;9.27;;;;;;;-145.18;100.00;60484.78;5023860;28;20064;-70
2022/04/18 00:50:32;;;;;;;18.37;9.60;;;;;;;-145.18;100.00;60484.78;5026312;28;20416;-70
2022/04/18 00:52:58;;;;;;;17.37;8.80;;;;;;;-145.18;100.00;60484.78;5013088;28;20358;-70
2022/04/18 00:55:26;;;;;;;16.83;9.20;;;;;;;-145.18;100.00;60484.78;5022949;28;20032;-70
2022/04/18 00:57:54;;;;;;;18.53;9.03;;;;;;;-145.18;100.00;60484.78;5015283;28;20029;-70
2022/04/18 01:00:20;;;;;;;18.40;9.40;;;;;;;-145.18;100.00;60484.78;5013465;28;20029;-70
2022/04/18 01:02:45;;;;;;;18.10;9.73;;;;;;;-145.18;100.00;60484.78;5006278;28;20508;-70
2022/04/18 01:05:11;;;;;;;19.73;10.00;;;;;;;-145.18;100.00;60484.78;5013591;28;20029;-70
2022/04/18 01:07:36;;;;;;;18.87;9.37;;;;;;;-145.18;100.00;60484.78;5020638;28;21016;-70
2022/04/18 01:10:06;;;;;;;17.67;9.30;;;;;;;-145.18;100.00;60484.78;5019752;28;20477;-70
2022/04/18 01:12:32;;;;;;;18.77;9.73;;;;;;;-145.18;100.00;60484.78;5013336;28;20033;-70
2022/04/18 01:14:58;;;;;;;24.93;10.60;;;;;;;-145.18;100.00;60484.78;5009265;28;22053;-70
2022/04/18 01:17:24;;;;;;;21.17;10.17;;;;;;;-145.18;100.00;60484.78;5016831;28;20033;-70
2022/04/18 01:19:49;;;;;;;20.87;10.10;;;;;;;-145.18;100.00;60484.78;5017544;28;20049;-70
2022/04/18 01:22:15;;;;;;;23.33;10.97;;;;;;;-145.18;100.00;60484.78;5011215;28;20044;-70
2022/04/18 01:30:10;;;;;;;20.87;10.77;;;;;;;-145.18;100.00;60484.78;5023174;28;20460;-70
2022/04/18 01:32:36;;;;;;;20.27;10.17;;;;;;;-145.18;100.00;60484.78;5021568;28;20025;-70
2022/04/18 01:35:01;;;;;;;21.03;9.90;;;;;;;-145.18;100.00;60484.78;5012767;28;20458;-70
2022/04/18 01:37:27;;;;;;;18.37;9.83;;;;;;;-145.18;100.00;60484.78;5016495;28;20033;-70
2022/04/18 01:39:52;;;;;;;22.37;10.73;;;;;;;-145.18;100.00;60484.78;5014132;28;20029;-71
2022/04/18 01:42:17;;;;;;;21.80;9.93;;;;;;;-145.18;100.00;60484.78;5023208;28;20031;-70
2022/04/18 01:44:43;;;;;;;19.07;10.20;;;;;;;-145.18;100.00;60484.78;5021199;28;20152;-71
2022/04/18 01:47:08;;;;;;;21.00;10.70;;;;;;;-145.18;100.00;60484.78;5021382;28;20939;-71
2022/04/18 01:49:34;;;;;;;19.40;9.90;;;;;;;-145.18;100.00;60484.78;5010470;28;20063;-71
2022/04/18 01:52:00;;;;;;;19.67;10.07;;;;;;;-145.18;100.00;60484.78;5020966;28;20394;-71
2022/04/18 01:54:26;;;;;;;20.80;10.17;;;;;;;-145.18;100.00;60484.78;5019011;28;20513;-71
2022/04/18 01:56:51;;;;;;;20.30;10.07;;;;;;;-145.18;100.00;60484.78;5019617;28;20126;-71
2022/04/18 01:59:17;;;;;;;17.37;9.90;;;;;;;-145.18;100.00;60484.78;5023319;28;20036;-71
2022/04/18 02:01:42;;;;;;;19.90;9.50;;;;;;;-145.18;100.00;60484.78;5028281;28;20619;-71
2022/04/18 02:04:08;;;;;;;20.77;10.07;;;;;;;-145.18;100.00;60484.78;5027748;28;20053;-70
2022/04/18 02:06:34;;;;;;;23.33;10.63;;;;;;;-145.18;100.00;60484.78;5027682;28;20664;-71
2022/04/18 02:09:00;;;;;;;19.23;10.40;;;;;;;-145.18;100.00;60484.78;5028398;28;20044;-71
2022/04/18 02:11:26;;;;;;;21.97;10.33;;;;;;;-145.18;100.00;60484.78;5030511;28;20724;-70
2022/04/18 02:13:52;;;;;;;20.13;10.47;;;;;;;-145.18;100.00;60484.78;5028254;28;20091;-71
2022/04/18 02:16:18;;;;;;;20.40;10.43;;;;;;;-145.18;100.00;60484.78;5024316;28;20651;-71
2022/04/18 02:18:44;;;;;;;21.73;10.63;;;;;;;-145.18;100.00;60484.78;5021056;28;20484;-70
2022/04/18 02:21:12;;;;;;;21.30;10.70;;;;;;;-145.18;100.00;60484.78;5027859;28;20026;-71
2022/04/18 02:23:40;;;;;;;22.70;10.60;;;;;;;-145.18;100.00;60484.78;5028949;28;20045;-71
2022/04/18 02:26:05;;;;;;;18.90;9.63;;;;;;;-145.18;100.00;60484.78;5019088;28;20028;-71
2022/04/18 02:28:31;;;;;;;20.77;10.47;;;;;;;-145.18;100.00;60484.78;5013013;28;20029;-71
2022/04/18 02:30:57;;;;;;;21.60;10.67;;;;;;;-145.18;100.00;60484.78;5024249;28;20574;-71
2022/04/18 02:33:23;;;;;;;18.57;9.93;;;;;;;-145.18;100.00;60484.78;5017040;28;20029;-71
2022/04/18 02:35:49;;;;;;;19.47;10.47;;;;;;;-145.18;100.00;60484.78;5026177;28;20040;-71
2022/04/18 02:38:14;;;;;;;21.50;10.47;;;;;;;-145.18;100.00;60484.78;5021869;28;20033;-71
2022/04/18 02:40:40;;;;;;;19.27;10.27;;;;;;;-145.18;100.00;60484.78;5019979;28;20029;-71
2022/04/18 02:43:05;;;;;;;19.67;10.47;;;;;;;-145.18;100.00;60484.78;5026663;28;20053;-71
2022/04/18 02:45:32;;;;;;;20.13;10.70;;;;;;;-145.18;100.00;60484.78;5015822;28;20392;-71
2022/04/18 02:47:58;;;;;;;19.57;9.73;;;;;;;-145.18;100.00;60484.78;5019820;28;20048;-71
2022/04/18 02:50:24;;;;;;;22.20;10.00;;;;;;;-145.18;100.00;60484.78;5019569;28;20030;-71
2022/04/18 02:52:49;;;;;;;23.27;10.00;;;;;;;-145.18;100.00;60484.78;5021807;28;20032;-71
2022/04/18 02:55:15;;;;;;;19.80;10.60;;;;;;;-145.18;100.00;60484.78;5019464;28;20030;-71
2022/04/18 02:57:40;;;;;;;19.77;10.03;;;;;;;-145.18;100.00;60484.78;5019892;28;20034;-71
2022/04/18 03:00:07;;;;;;;17.90;10.43;;;;;;;-145.18;100.00;60484.78;5018379;28;20363;-71
2022/04/18 03:02:33;;;;;;;19.83;10.40;;;;;;;-145.18;100.00;60484.78;5023318;28;20572;-71
2022/04/18 03:04:58;;;;;;;19.07;10.10;;;;;;;-145.18;100.00;60484.78;5018121;28;20025;-71
2022/04/18 03:07:23;;;;;;;18.70;10.57;;;;;;;-145.18;100.00;60484.78;5028618;28;20096;-70
2022/04/18 03:09:49;;;;;;;17.93;9.57;;;;;;;-145.18;100.00;60484.78;5020110;28;20029;-71
2022/04/18 03:12:14;;;;;;;22.73;10.30;;;;;;;-145.18;100.00;60484.78;5016074;28;20017;-71
2022/04/18 03:14:39;;;;;;;21.03;10.53;;;;;;;-145.18;100.00;60484.78;5012918;28;20021;-71
2022/04/18 03:17:05;;;;;;;18.73;9.73;;;;;;;-145.18;100.00;60484.78;5020074;28;20834;-71
2022/04/18 03:19:30;;;;;;;19.20;10.67;;;;;;;-145.18;100.00;60484.78;5017805;28;20045;-71
2022/04/18 03:21:56;;;;;;;19.80;10.70;;;;;;;-145.18;100.00;60484.78;5018318;28;20477;-71
2022/04/18 03:24:21;;;;;;;20.00;10.93;;;;;;;-145.18;100.00;60484.78;5017109;28;20033;-71
2022/04/18 03:26:46;;;;;;;20.23;10.73;;;;;;;-145.18;100.00;60484.78;5019672;28;20053;-76
2022/04/18 03:29:12;;;;;;;21.27;10.70;;;;;;;-145.18;100.00;60484.78;4993471;28;20033;-71
2022/04/18 03:31:37;;;;;;;19.63;10.77;;;;;;;-145.18;100.00;60484.78;5010711;28;20110;-71
2022/04/18 03:34:02;;;;;;;18.77;10.40;;;;;;;-145.18;100.00;60484.78;4992973;28;20049;-71
2022/04/18 03:41:56;;;;;;;19.30;10.17;;;;;;;-145.18;100.00;60484.78;5012245;28;21903;-71
2022/04/18 03:44:21;;;;;;;19.73;10.60;;;;;;;-145.18;100.00;60484.78;5010975;28;20033;-71
2022/04/18 03:46:47;;;;;;;20.03;10.97;;;;;;;-145.18;100.00;60484.78;5012425;28;20029;-71
2022/04/18 03:49:12;;;;;;;21.63;11.47;;;;;;;-145.18;100.00;60484.78;5009995;28;20641;-71
2022/04/18 03:51:37;;;;;;;19.53;10.70;;;;;;;-145.18;100.00;60484.78;5010849;28;20037;-71
2022/04/18 03:54:03;;;;;;;19.30;10.30;;;;;;;-145.18;100.00;60484.78;5012105;28;20040;-71
2022/04/18 03:56:28;;;;;;;19.40;10.33;;;;;;;-145.18;100.00;60484.78;5012941;28;20915;-71
2022/04/18 03:58:53;;;;;;;20.87;10.90;;;;;;;-145.18;100.00;60484.78;5011294;28;20064;-71
2022/04/18 04:01:19;;;;;;;22.57;11.57;;;;;;;-145.18;100.00;60484.78;5012442;28;20105;-71
2022/04/18 04:03:44;;;;;;;22.67;10.80;;;;;;;-145.18;100.00;60484.78;5011839;28;20397;-71
2022/04/18 04:06:10;;;;;;;22.97;11.93;;;;;;;-145.18;100.00;60484.78;5011950;28;20160;-71
2022/04/18 04:08:35;;;;;;;22.67;10.93;;;;;;;-145.18;100.00;60484.78;5015175;28;20061;-71
2022/04/18 04:11:00;;;;;;;20.67;10.73;;;;;;;-145.18;100.00;60484.78;4994623;28;20029;-71
2022/04/18 04:13:26;;;;;;;20.83;11.37;;;;;;;-145.18;100.00;60484.78;5010706;28;20033;-71
2022/04/18 04:15:51;;;;;;;19.03;10.47;;;;;;;-145.18;100.00;60484.78;5014134;28;20029;-71
2022/04/18 04:18:17;;;;;;;22.90;11.50;;;;;;;-145.18;100.00;60484.78;5012487;28;20234;-71
2022/04/18 04:20:42;;;;;;;19.27;10.70;;;;;;;-145.18;100.00;60484.78;5011948;28;20029;-71
2022/04/18 04:23:08;;;;;;;21.93;11.33;;;;;;;-145.18;100.00;60484.78;5015431;28;20037;-71
2022/04/18 04:25:33;;;;;;;21.03;10.83;;;;;;;-145.18;100.00;60484.78;5011948;28;20481;-71
2022/04/18 04:27:58;;;;;;;20.57;10.67;;;;;;;-145.18;100.00;60484.78;5015782;28;20037;-71
2022/04/18 04:30:24;;;;;;;20.53;11.43;;;;;;;-145.18;100.00;60484.78;5012825;28;20018;-71
2022/04/18 04:32:50;;;;;;;20.07;10.67;;;;;;;-145.18;100.00;60484.78;5013539;28;20627;-71
2022/04/18 04:35:19;;;;;;;18.33;10.60;;;;;;;-145.18;100.00;60484.78;5015652;28;20040;-71
2022/04/18 04:37:44;;;;;;;19.80;10.80;;;;;;;-145.18;100.00;60484.78;5014341;28;20057;-71
2022/04/18 04:40:11;;;;;;;19.87;11.30;;;;;;;-145.18;100.00;60484.78;5021763;28;20551;-71
2022/04/18 04:42:36;;;;;;;20.97;11.23;;;;;;;-145.18;100.00;60484.78;5017075;28;21661;-70
2022/04/18 04:45:02;;;;;;;22.60;11.53;;;;;;;-145.18;100.00;60484.78;5014338;28;20033;-71
2022/04/18 04:47:27;;;;;;;22.43;11.43;;;;;;;-145.18;100.00;60484.78;5009969;28;20018;-71
2022/04/18 04:49:53;;;;;;;21.43;11.40;;;;;;;-145.18;100.00;60484.78;5014201;28;20033;-71
2022/04/18 04:52:20;;;;;;;24.30;11.47;;;;;;;-145.18;100.00;60484.78;5014062;28;20033;-71
2022/04/18 04:54:45;;;;;;;24.33;12.17;;;;;;;-145.18;100.00;60484.78;5015240;28;20029;-71
2022/04/18 04:57:10;;;;;;;24.57;12.57;;;;;;;-145.18;100.00;60484.78;5014668;28;20038;-71
2022/04/18 04:59:36;;;;;;;27.83;15.93;;;;;;;-145.18;100.00;60484.78;5023519;28;20040;-71
2022/04/18 05:02:01;;;;;;;23.43;11.93;;;;;;;-145.18;100.00;60484.78;5026514;28;20079;-71
2022/04/18 05:04:27;;;;;;;27.97;13.73;;;;;;;-145.18;100.00;60484.78;5027378;28;20401;-71
2022/04/18 05:06:53;;;;;;;23.23;13.30;;;;;;;-145.18;100.00;60484.78;5017744;28;20079;-71
2022/04/18 05:09:18;;;;;;;23.80;14.07;;;;;;;-145.18;100.00;60484.78;5027900;28;20059;-71
2022/04/18 05:11:46;;;;;;;34.97;16.83;;;;;;;-145.18;100.00;60484.78;5021547;28;20029;-71
2022/04/18 05:14:12;;;;;;;26.33;13.67;;;;;;;-145.18;100.00;60484.78;5028561;28;20470;-71
2022/04/18 05:16:37;;;;;;;29.27;15.03;;;;;;;-145.18;100.00;60484.78;5021176;28;20036;-71
2022/04/18 05:19:03;;;;;;;27.03;14.77;;;;;;;-145.18;100.00;60484.78;5019543;28;20048;-71
2022/04/18 05:21:28;;;;;;;21.87;12.00;;;;;;;-145.18;100.00;60484.78;5021470;28;20042;-71
2022/04/18 05:23:53;;;;;;;23.60;13.50;;;;;;;-145.18;100.00;60484.78;5022025;28;20389;-71
2022/04/18 05:26:19;;;;;;;21.13;10.93;;;;;;;-145.18;100.00;60484.78;5009401;28;20116;-71
2022/04/18 05:28:45;;;;;;;21.23;11.80;;;;;;;-145.18;100.00;60484.78;5024381;28;20033;-71
2022/04/18 05:31:11;;;;;;;19.77;10.33;;;;;;;-145.18;100.00;60484.78;5018210;28;20034;-71
2022/04/18 05:33:36;;;;;;;18.77;10.77;;;;;;;-145.18;100.00;60484.78;5022241;28;20091;-71
2022/04/18 05:36:02;;;;;;;22.80;10.57;;;;;;;-145.18;100.00;60484.78;5030157;28;20064;-71
2022/04/18 05:38:27;;;;;;;24.57;10.77;;;;;;;-145.18;100.00;60484.78;5013636;28;20026;-71
2022/04/18 05:40:52;;;;;;;21.07;10.80;;;;;;;-145.18;100.00;60484.78;5017551;28;20025;-71
2022/04/18 05:43:18;;;;;;;19.67;10.53;;;;;;;-145.18;100.00;60484.78;5024920;28;20108;-71
2022/04/18 05:45:44;;;;;;;19.73;10.97;;;;;;;-145.18;100.00;60484.78;5023065;28;20385;-71
2022/04/18 05:48:09;;;;;;;20.17;11.07;;;;;;;-145.18;100.00;60484.78;5019987;28;20036;-71
2022/04/18 05:50:35;;;;;;;18.93;11.07;;;;;;;-145.18;100.00;60484.78;5022252;28;20091;-71
2022/04/18 05:53:01;;;;;;;19.43;11.33;;;;;;;-145.18;100.00;60484.78;5025482;28;20425;-71
2022/04/18 05:55:26;;;;;;;24.37;10.63;;;;;;;-145.18;100.00;60484.78;5019655;28;20128;-71
2022/04/18 05:57:54;;;;;;;16.77;10.03;;;;;;;-145.18;100.00;60484.78;5018321;28;20108;-72
2022/04/18 06:00:20;;;;;;;16.20;10.03;;;;;;;-145.18;100.00;60484.78;5023730;28;20056;-71
2022/04/18 06:02:46;;;;;;;17.07;9.57;;;;;;;-145.18;100.00;60484.78;5017688;28;20030;-72
2022/04/18 06:05:11;;;;;;;15.60;8.77;;;;;;;-145.18;100.00;60484.78;5018856;28;20033;-72
2022/04/18 06:07:39;;;;;;;16.07;8.93;;;;;;;-145.18;100.00;60484.78;5027688;28;20053;-72
2022/04/18 06:10:05;;;;;;;14.23;8.57;;;;;;;-145.18;100.00;60484.78;5025379;28;20037;-72
2022/04/18 06:12:30;;;;;;;17.43;8.67;;;;;;;-145.18;100.00;60484.78;5015528;28;20423;-72
2022/04/18 06:14:56;;;;;;;12.83;8.33;;;;;;;-145.18;100.00;60484.78;5026816;28;20025;-72
2022/04/18 06:17:22;;;;;;;16.40;8.50;;;;;;;-145.18;100.00;60484.78;5027809;28;20029;-72
2022/04/18 06:19:49;;;;;;;14.87;8.97;;;;;;;-145.18;100.00;60484.78;5021195;28;20022;-72
2022/04/18 06:22:16;;;;;;;15.47;9.17;;;;;;;-145.18;100.00;60484.78;5012598;28;20022;-72
2022/04/18 06:24:41;;;;;;;15.37;8.20;;;;;;;-145.18;100.00;60484.78;5022230;28;20361;-72
2022/04/18 06:27:07;;;;;;;18.02;9.30;;;;;;;-145.18;100.00;60484.78;5026123;28;21073;-72
2022/04/18 06:29:32;;;;;;;18.33;9.13;;;;;;;-145.18;100.00;60484.78;5021939;28;20476;-72
2022/04/18 06:31:58;;;;;;;15.10;9.10;;;;;;;-145.18;100.00;60484.78;5025970;28;20055;-72
2022/04/18 06:34:25;;;;;;;12.90;8.57;;;;;;;-145.18;100.00;60484.78;5023009;28;20021;-72
2022/04/18 06:36:51;;;;;;;15.40;8.80;;;;;;;-145.18;100.00;60484.78;5028505;28;20393;-72
2022/04/18 06:39:16;;;;;;;13.75;8.52;;;;;;;-145.18;100.00;60484.78;5018889;28;20033;-72
2022/04/18 06:41:41;;;;;;;15.43;9.15;;;;;;;-145.18;100.00;60484.78;5017228;28;20030;-72
2022/04/18 06:44:07;;;;;;;15.25;8.10;;;;;;;-145.18;100.00;60484.78;5018193;28;20025;-72
2022/04/18 06:46:32;;;;;;;15.25;8.18;;;;;;;-145.18;100.00;60484.78;5016349;28;20694;-72
2022/04/18 06:48:57;;;;;;;15.45;8.25;;;;;;;-145.18;100.00;60484.78;5019831;28;20367;-72
2022/04/18 06:51:23;;;;;;;14.88;8.10;;;;;;;-145.18;100.00;60484.78;5017435;28;20040;-72
2022/04/18 06:53:48;;;;;;;13.57;7.68;;;;;;;-145.18;100.00;60484.78;5019118;28;20033;-72
2022/04/18 06:58:57;;;;;;;15.55;8.20;;;;;;;-145.18;100.00;60484.78;5024340;28;20109;-71
2022/04/18 07:01:22;;;;;;;15.07;8.45;;;;;;;-145.18;100.00;60484.78;5022624;28;20108;-71
2022/04/18 07:03:48;;;;;;;13.48;7.68;;;;;;;-145.18;100.00;60484.78;5018208;28;20410;-71
2022/04/18 07:06:13;;;;;;;13.45;7.75;;;;;;;-145.18;100.00;60484.78;5017577;28;20521;-71
2022/04/18 07:08:39;;;;;;;14.10;7.50;;;;;;;-145.18;100.00;60484.78;5025266;28;20100;-71
2022/04/18 07:11:04;;;;;;;11.45;6.93;;;;;;;-145.18;100.00;60484.78;5020407;28;20029;-71
2022/04/18 07:13:29;;;;;;;12.02;6.78;;;;;;;-145.18;100.00;60484.78;5018963;28;20076;-72
2022/04/18 07:15:55;;;;;;;11.20;6.50;;;;;;;-145.18;100.00;60484.78;5022768;28;20029;-72
2022/04/18 07:18:20;;;;;;;11.30;6.72;;;;;;;-145.18;100.00;60484.78;5017063;28;20033;-71
2022/04/18 07:20:46;;;;;;;10.00;6.28;;;;;;;-145.18;100.00;60484.78;5021997;28;20045;-71
2022/04/18 07:23:12;;;;;;;11.75;6.18;;;;;;;-145.18;100.00;60484.78;5016969;28;20111;-72
2022/04/18 07:25:37;;;;;;;9.73;5.80;;;;;;;-145.18;100.00;60484.78;5020655;28;20029;-72
2022/04/18 07:28:03;;;;;;;11.68;6.30;;;;;;;-145.18;100.00;60484.78;5015474;28;20044;-72
2022/04/18 07:30:30;;;;;;;10.10;6.13;;;;;;;-145.18;100.00;60484.78;5020706;28;20067;-71
2022/04/18 07:32:56;;;;;;;8.85;5.45;;;;;;;-145.18;100.00;60484.78;5026987;28;20028;-72
2022/04/18 07:35:22;;;;;;;11.80;5.90;;;;;;;-145.18;100.00;60484.78;5019782;28;20478;-71
2022/04/18 07:40:31;;;;;;;9.52;5.75;;;;;;;-145.18;100.00;60484.78;5021055;28;20045;-72
2022/04/18 07:42:56;;;;;;;9.60;4.57;;;;;;;-145.18;100.00;60484.78;5024287;28;20021;-72
2022/04/18 07:45:22;;;;;;;10.43;4.80;;;;;;;-145.18;100.00;60484.78;5022019;28;20116;-72
2022/04/18 07:47:47;;;;;;;8.18;4.75;;;;;;;-145.18;100.00;60484.78;5014821;28;20033;-72
2022/04/18 07:50:12;;;;;;;8.63;4.40;;;;;;;-145.18;100.00;60484.78;5016453;28;20064;-73
2022/04/18 07:52:38;;;;;;;8.52;5.07;;;;;;;-145.18;100.00;60484.78;5018186;28;20033;-73
2022/04/18 07:55:04;;;;;;;8.55;4.40;;;;;;;-145.18;100.00;60484.78;5023873;28;20629;-72
2022/04/18 07:57:30;;;;;;;7.45;4.30;;;;;;;-145.18;100.00;60484.78;5024867;28;20059;-73
2022/04/18 07:59:56;;;;;;;7.22;4.38;;;;;;;-145.18;100.00;60484.78;5019779;28;20021;-73
2022/04/18 08:02:22;;;;;;;7.85;4.22;;;;;;;-145.18;100.00;60484.78;5018745;28;20489;-73
2022/04/18 08:04:47;;;;;;;7.70;4.35;;;;;;;-145.18;100.00;60484.78;5020069;28;20040;-72
2022/04/18 08:07:12;;;;;;;8.38;4.13;;;;;;;-145.18;100.00;60484.78;5026236;28;20026;-72
2022/04/18 08:09:38;;;;;;;7.47;3.75;;;;;;;-145.18;100.00;60484.78;5026372;28;20656;-71
2022/04/18 08:12:04;;;;;;;9.65;4.40;;;;;;;-145.18;100.00;60484.78;5028419;28;20032;-72
2022/04/18 08:14:30;;;;;;;9.18;4.13;;;;;;;-145.18;100.00;60484.78;5009530;28;20148;-72
2022/04/18 08:16:55;;;;;;;7.40;4.55;;;;;;;-145.18;100.00;60484.78;5021579;28;20109;-72
2022/04/18 08:19:20;;;;;;;7.63;4.20;;;;;;;-145.18;100.00;60484.78;5023885;28;20026;-72
2022/04/18 08:21:46;;;;;;;7.78;3.72;;;;;;;-145.18;100.00;60484.78;5019706;28;20026;-72
2022/04/18 08:24:11;;;;;;;6.68;3.78;;;;;;;-145.18;100.00;60484.78;5025718;28;20104;-72
2022/04/18 08:26:36;;;;;;;7.50;4.20;;;;;;;-145.18;100.00;60484.78;5028501;28;20022;-72
2022/04/18 08:29:02;;;;;;;8.07;3.95;;;;;;;-145.18;100.00;60484.78;5021043;28;20101;-73
2022/04/18 08:31:28;;;;;;;7.32;4.40;;;;;;;-145.18;100.00;60484.78;5019432;28;20108;-73
2022/04/18 08:33:53;;;;;;;7.75;3.88;;;;;;;-145.18;100.00;60484.78;5027192;28;20026;-72
2022/04/18 08:36:19;;;;;;;8.13;4.30;;;;;;;-145.18;100.00;60484.78;5027328;28;20054;-72
2022/04/18 08:38:44;;;;;;;7.18;3.70;;;;;;;-145.18;100.00;60484.78;5018967;28;20749;-72
2022/04/18 08:41:15;;;;;;;6.88;3.63;;;;;;;-145.18;100.00;60484.78;5020333;28;20022;-72
2022/04/18 08:43:42;;;;;;;6.30;3.60;;;;;;;-145.18;100.00;60484.78;5018378;28;20040;-72
2022/04/18 08:46:08;;;;;;;7.13;3.63;;;;;;;-145.18;100.00;60484.78;5027032;28;20120;-72
2022/04/18 08:54:06;;;;;;;9.55;3.97;;;;;;;-145.18;100.00;60484.78;5026373;28;20036;-72
2022/04/18 08:56:32;;;;;;;8.50;3.90;;;;;;;-145.18;100.00;60484.78;5023940;28;20033;-72
2022/04/18 08:58:57;;;;;;;10.05;3.90;;;;;;;-145.18;100.00;60484.78;5024947;28;20440;-72
2022/04/18 09:01:22;;;;;;;7.60;3.67;;;;;;;-145.18;100.00;60484.78;5003222;28;20022;-71
2022/04/18 09:03:48;;;;;;;6.18;3.50;;;;;;;-145.18;100.00;60484.78;5018017;28;20033;-72
2022/04/18 09:06:14;;;;;;;6.65;3.67;;;;;;;-145.18;100.00;60484.78;5030123;28;20022;-72
2022/04/18 09:08:43;;;;;;;6.07;3.15;;;;;;;-145.18;100.00;60484.78;5024870;28;20044;-71
2022/04/18 09:11:09;;;;;;;6.68;3.53;;;;;;;-145.18;100.00;60484.78;5032135;28;20025;-71
2022/04/18 09:13:42;;;;;;;5.82;3.40;;;;;;;-145.18;100.00;60484.78;5028282;28;20032;-72
2022/04/18 09:16:15;;;;;;;6.75;3.58;;;;;;;-145.18;100.00;60484.78;5024024;28;20108;-71
2022/04/18 09:18:42;;;;;;;6.00;3.50;;;;;;;-145.18;100.00;60484.78;5018877;28;20025;-71
2022/04/18 09:21:08;;;;;;;7.70;3.10;;;;;;;-145.18;100.00;60484.78;5028514;28;20025;-71
2022/04/18 09:23:35;;;;;;;6.45;3.35;;;;;;;-145.18;100.00;60484.78;5024604;28;20036;-72
2022/04/18 09:26:05;;;;;;;7.15;3.30;;;;;;;-145.18;100.00;60484.78;5026142;28;20478;-72
2022/04/18 09:28:33;;;;;;;5.63;3.13;;;;;;;-145.18;100.00;60484.78;5020066;28;20091;-71
2022/04/18 09:31:09;;;;;;;6.85;3.15;;;;;;;-145.18;100.00;60484.78;5032863;28;20087;-72
2022/04/18 09:33:38;;;;;;;5.53;3.22;;;;;;;-145.18;100.00;60484.78;5031412;28;20033;-71
2022/04/18 09:36:16;;;;;;;5.43;3.00;;;;;;;-145.18;100.00;60484.78;5030029;28;20091;-71
2022/04/18 09:38:54;;;;;;;5.25;2.78;;;;;;;-145.18;100.00;60484.78;5028044;28;20033;-72
2022/04/18 09:41:30;;;;;;;6.88;3.30;;;;;;;-145.18;100.00;60484.78;5028035;28;20112;-71
2022/04/18 09:43:56;;;;;;;7.15;2.95;;;;;;;-145.18;100.00;60484.78;5028261;28;20022;-72
2022/04/18 09:46:22;;;;;;;4.75;2.78;;;;;;;-145.18;100.00;60484.78;5029289;28;20488;-72
2022/04/18 09:48:50;;;;;;;7.20;3.13;;;;;;;-145.18;100.00;60484.78;5028893;28;20173;-71
2022/04/18 09:51:16;;;;;;;5.20;2.60;;;;;;;-145.18;100.00;60484.78;5022500;28;20025;-71
2022/04/18 09:53:46;;;;;;;57.17;37.45;;;;;;;-145.18;100.00;60484.78;5029740;28;20080;-72
2022/04/18 09:56:19;;;;;;;5.60;3.60;;;;;;;-145.18;100.00;60484.78;5019616;28;20037;-72
2022/04/18 09:58:44;;;;;;;5.53;2.60;;;;;;;-145.18;100.00;60484.78;5018428;28;20496;-72
2022/04/18 10:01:11;;;;;;;5.07;3.03;;;;;;;-145.18;100.00;60484.78;5015988;28;20029;-71
2022/04/18 10:03:38;;;;;;;7.18;2.85;;;;;;;-145.18;100.00;60484.78;5018494;28;20518;-71
2022/04/18 10:06:05;;;;;;;4.82;2.78;;;;;;;-145.18;100.00;60484.78;5021182;28;20552;-72
2022/04/18 10:08:31;;;;;;;5.10;2.90;;;;;;;-145.18;100.00;60484.78;5014597;28;20038;-72
2022/04/18 10:10:59;;;;;;;5.20;2.70;;;;;;;-145.18;100.00;60484.78;5020490;28;20025;-72
2022/04/18 10:13:26;;;;;;;5.32;2.92;;;;;;;-145.18;100.00;60484.78;5024531;28;20029;-72
2022/04/18 10:15:52;;;;;;;5.15;2.88;;;;;;;-145.18;100.00;60484.78;5019607;28;20034;-72
2022/04/18 10:18:18;;;;;;;5.82;2.67;;;;;;;-145.18;100.00;60484.78;5023154;28;20040;-72
2022/04/18 10:21:08;;;;;;;5.78;2.50;;;;;;;-145.18;100.00;60484.78;5022899;28;20416;-72
2022/04/18 10:24:11;;;;;;;5.78;2.92;;;;;;;-145.18;100.00;60484.78;5025699;28;20037;-72
2022/04/18 10:26:58;;;;;;;4.85;2.40;;;;;;;-145.18;100.00;60484.78;5023110;28;20568;-71
2022/04/18 10:29:30;;;;;;;4.60;2.50;;;;;;;-145.18;100.00;60484.78;5012242;28;20472;-71
2022/04/18 10:32:03;;;;;;;5.57;2.40;;;;;;;-145.18;100.00;60484.78;5016517;28;20034;-72
2022/04/18 10:34:31;;;;;;;4.20;2.25;;;;;;;-145.18;100.00;60484.78;5027513;28;20401;-71
2022/04/18 10:36:59;;;;;;;4.70;1.98;;;;;;;-145.18;100.00;60484.78;5025904;28;20041;-71
2022/04/18 10:39:32;;;;;;;4.10;2.10;;;;;;;-145.18;100.00;60484.78;5022132;28;20431;-72
2022/04/18 10:41:59;;;;;;;4.80;2.20;;;;;;;-145.18;100.00;60484.78;5021729;28;20044;-71
2022/04/18 10:44:33;;;;;;;4.15;2.00;;;;;;;-145.18;100.00;60484.78;5023686;28;20497;-71
2022/04/18 10:47:03;;;;;;;4.43;2.10;;;;;;;-145.18;100.00;60484.78;5006361;28;20037;-71
2022/04/18 10:49:33;;;;;;;4.47;2.20;;;;;;;-145.18;100.00;60484.78;5025584;28;20200;-70
2022/04/18 10:52:08;;;;;;;4.30;2.10;;;;;;;-145.18;100.00;60484.78;5025198;28;20062;-70
2022/04/18 10:54:34;;;;;;;5.13;2.03;;;;;;;-145.18;100.00;60484.78;5022736;28;20026;-70
2022/04/18 10:57:06;;;;;;;3.78;1.70;;;;;;;-145.18;100.00;60484.78;5009901;28;20087;-70
2022/04/18 10:59:34;;;;;;;3.95;2.03;;;;;;;-145.18;100.00;60484.78;5025955;28;20053;-70
2022/04/18 11:02:02;;;;;;;5.30;1.95;;;;;;;-145.18;100.00;60484.78;5019440;28;20039;-70
2022/04/18 11:04:40;;;;;;;4.50;1.75;;;;;;;-145.18;100.00;60484.78;5024293;28;20036;-69
2022/04/18 11:07:10;;;;;;;5.68;2.33;;;;;;;-145.18;100.00;60484.78;5025767;28;20038;-70
2022/04/18 11:09:42;;;;;;;4.68;2.13;;;;;;;-145.18;100.00;60484.78;5025299;28;20120;-70
2022/04/18 11:12:19;;;;;;;5.18;2.03;;;;;;;-145.18;100.00;60484.78;5026240;28;20114;-69
2022/04/18 11:14:51;;;;;;;5.28;2.00;;;;;;;-145.18;100.00;60484.78;5012370;28;20026;-70
2022/04/18 11:17:30;;;;;;;4.65;2.30;;;;;;;-145.18;100.00;60484.78;5024576;28;20025;-69
2022/04/18 11:19:57;;;;;;;4.57;2.17;;;;;;;-145.18;100.00;60484.78;5022699;28;20390;-69
2022/04/18 11:22:23;;;;;;;3.83;1.90;;;;;;;-145.18;100.00;60484.78;5023411;28;20040;-69